createdAt,value
2022-12-08T00:01:12.511Z,58.59
2022-12-08T00:03:39.900Z,59.60
2022-12-08T00:06:31.553Z,59.42
2022-12-08T00:09:17.101Z,58.00
2022-12-08T00:11:44.015Z,58.79
2022-12-08T00:14:10.744Z,57.85
2022-12-08T00:16:37.670Z,58.33
2022-12-08T00:19:04.506Z,58.13
2022-12-08T00:21:31.434Z,57.92
2022-12-08T00:23:58.188Z,58.37
2022-12-08T00:26:25.072Z,58.26
2022-12-08T00:28:51.852Z,57.65
2022-12-08T00:31:18.893Z,58.74
2022-12-08T00:33:45.839Z,58.12
2022-12-08T00:36:14.750Z,57.95
2022-12-08T00:38:41.914Z,57.41
2022-12-08T00:41:40.735Z,57.33
2022-12-08T00:44:08.540Z,58.64
2022-12-08T00:46:36.299Z,59.48
2022-12-08T00:49:04.493Z,59.60
2022-12-08T00:51:31.940Z,59.20
2022-12-08T00:53:58.807Z,58.78
2022-12-08T00:56:26.436Z,58.17
2022-12-08T00:58:53.334Z,58.97
2022-12-08T01:01:20.439Z,61.04
2022-12-08T01:03:47.873Z,59.74
2022-12-08T01:06:14.777Z,60.71
2022-12-08T01:08:42.326Z,59.95
2022-12-08T01:11:17.886Z,59.84
2022-12-08T01:13:45.689Z,61.16
2022-12-08T01:16:24.111Z,60.34
2022-12-08T01:18:51.107Z,62.11
2022-12-08T01:21:18.919Z,61.08
2022-12-08T01:23:46.304Z,60.30
2022-12-08T01:26:15.142Z,59.65
2022-12-08T01:28:42.761Z,60.18
2022-12-08T01:31:15.481Z,61.65
2022-12-08T01:33:42.985Z,60.93
2022-12-08T01:36:20.431Z,61.04
2022-12-08T01:38:47.377Z,60.96
2022-12-08T01:41:16.960Z,61.47
2022-12-08T01:44:24.022Z,60.85
2022-12-08T01:46:53.644Z,61.07
2022-12-08T01:49:30.823Z,60.72
2022-12-08T01:52:06.369Z,60.48
2022-12-08T01:54:39.266Z,61.09
2022-12-08T01:57:15.409Z,60.03
2022-12-08T02:02:42.047Z,61.00
2022-12-08T02:05:10.043Z,60.00
2022-12-08T02:07:37.584Z,60.03
2022-12-08T02:10:05.409Z,59.06
2022-12-08T02:12:32.764Z,60.77
2022-12-08T02:15:04.736Z,61.26
2022-12-08T02:17:53.603Z,61.00
2022-12-08T02:20:59.258Z,61.40
2022-12-08T02:23:36.121Z,60.44
2022-12-08T02:26:05.615Z,61.94
2022-12-08T02:28:58.608Z,61.70
2022-12-08T02:31:37.346Z,61.29
2022-12-08T02:34:36.342Z,60.23
2022-12-08T02:37:20.080Z,59.29
2022-12-08T02:39:52.762Z,59.67
2022-12-08T02:42:31.587Z,59.86
2022-12-08T02:45:09.590Z,59.42
2022-12-08T02:47:37.055Z,60.60
2022-12-08T02:50:04.517Z,60.52
2022-12-08T02:52:31.558Z,59.11
2022-12-08T02:55:14.413Z,59.66
2022-12-08T02:57:59.060Z,60.62
2022-12-08T03:00:29.670Z,62.56
2022-12-08T03:03:33.755Z,61.98
2022-12-08T03:06:36.930Z,61.64
2022-12-08T03:09:12.544Z,61.79
2022-12-08T03:11:49.974Z,61.87
2022-12-08T03:14:18.195Z,62.00
2022-12-08T03:16:49.843Z,62.07
2022-12-08T03:19:21.053Z,62.51
2022-12-08T03:21:52.615Z,62.93
2022-12-08T03:24:22.936Z,62.15
2022-12-08T03:26:59.982Z,62.63
2022-12-08T03:29:27.078Z,61.38
2022-12-08T03:32:01.493Z,60.52
2022-12-08T03:34:30.041Z,61.14
2022-12-08T03:36:56.876Z,61.09
2022-12-08T03:39:24.450Z,64.22
2022-12-08T03:41:51.217Z,64.76
2022-12-08T03:44:18.084Z,64.05
2022-12-08T03:46:45.864Z,64.28
2022-12-08T03:49:12.628Z,63.40
2022-12-08T03:51:39.600Z,63.37
2022-12-08T03:54:06.385Z,63.10
2022-12-08T03:56:38.506Z,62.58
2022-12-08T03:59:06.620Z,63.74
2022-12-08T04:01:33.721Z,63.55
2022-12-08T04:04:00.699Z,63.33
2022-12-08T04:06:27.424Z,63.00
2022-12-08T04:08:54.532Z,60.96
2022-12-08T04:11:22.016Z,62.14
2022-12-08T04:13:49.059Z,62.49
2022-12-08T04:16:26.710Z,62.80
2022-12-08T04:18:53.960Z,62.98
2022-12-08T04:21:20.766Z,61.68
2022-12-08T04:23:48.003Z,62.21
2022-12-08T04:26:15.159Z,62.51
2022-12-08T04:28:42.020Z,62.82
2022-12-08T04:31:08.998Z,62.86
2022-12-08T04:33:36.183Z,61.94
2022-12-08T04:36:05.014Z,62.00
2022-12-08T04:38:32.788Z,61.14
2022-12-08T04:40:59.632Z,61.93
2022-12-08T04:43:26.471Z,61.48
2022-12-08T04:45:53.250Z,61.70
2022-12-08T04:48:20.287Z,60.94
2022-12-08T04:50:47.262Z,61.51
2022-12-08T04:53:14.439Z,61.37
2022-12-08T04:55:43.819Z,60.69
2022-12-08T04:58:20.508Z,61.02
2022-12-08T05:00:47.965Z,63.38
2022-12-08T05:03:15.613Z,62.09
2022-12-08T05:05:43.566Z,61.47
2022-12-08T05:08:11.022Z,61.36
2022-12-08T05:10:38.126Z,60.64
2022-12-08T05:13:04.958Z,61.29
2022-12-08T05:15:31.802Z,60.67
2022-12-08T05:17:58.642Z,60.19
2022-12-08T05:20:25.478Z,60.29
2022-12-08T05:23:10.997Z,60.52
2022-12-08T05:25:38.342Z,61.01
2022-12-08T05:28:32.692Z,62.14
2022-12-08T05:30:52.497Z,61.32
2022-12-08T05:33:20.339Z,61.36
2022-12-08T05:35:47.149Z,60.79
2022-12-08T05:38:14.085Z,61.29
2022-12-08T05:40:41.862Z,63.63
2022-12-08T05:43:10.075Z,63.74
2022-12-08T05:45:37.026Z,61.77
2022-12-08T05:48:04.289Z,62.16
2022-12-08T05:50:31.189Z,62.00
2022-12-08T05:52:58.303Z,61.91
2022-12-08T05:55:25.146Z,61.77
2022-12-08T05:57:51.948Z,61.87
2022-12-08T06:00:19.371Z,61.13
2022-12-08T06:02:46.665Z,60.73
2022-12-08T06:05:13.405Z,62.90
2022-12-08T06:07:40.191Z,62.96
2022-12-08T06:10:07.733Z,63.05
2022-12-08T06:12:34.672Z,63.92
2022-12-08T06:15:01.424Z,62.30
2022-12-08T06:17:28.669Z,62.91
2022-12-08T06:19:55.462Z,61.97
2022-12-08T06:22:22.346Z,61.96
2022-12-08T06:24:49.157Z,61.31
2022-12-08T06:27:15.897Z,61.30
2022-12-08T06:29:42.804Z,60.75
2022-12-08T06:32:09.674Z,61.03
2022-12-08T06:34:36.451Z,61.60
2022-12-08T06:37:03.302Z,62.87
2022-12-08T06:39:30.063Z,63.92
2022-12-08T06:42:15.719Z,64.82
2022-12-08T06:44:42.659Z,63.52
2022-12-08T06:47:09.418Z,62.97
2022-12-08T06:49:36.176Z,62.70
2022-12-08T06:52:03.097Z,62.50
2022-12-08T06:54:29.897Z,62.36
2022-12-08T06:56:56.835Z,62.01
2022-12-08T06:59:26.021Z,60.96
2022-12-08T07:01:52.960Z,62.01
2022-12-08T07:04:19.760Z,63.26
2022-12-08T07:06:46.673Z,62.46
2022-12-08T07:09:13.490Z,62.54
2022-12-08T07:11:40.249Z,61.95
2022-12-08T07:14:07.114Z,62.48
2022-12-08T07:16:34.203Z,63.86
2022-12-08T07:19:01.103Z,62.57
2022-12-08T07:21:27.847Z,63.49
2022-12-08T07:23:57.928Z,63.44
2022-12-08T07:26:25.355Z,63.38
2022-12-08T07:28:52.176Z,62.79
2022-12-08T07:31:21.986Z,62.77
2022-12-08T07:33:50.275Z,63.33
2022-12-08T07:36:17.352Z,63.29
2022-12-08T07:38:44.671Z,62.51
2022-12-08T07:41:13.572Z,63.50
2022-12-08T07:43:40.895Z,63.19
2022-12-08T07:46:08.312Z,62.41
2022-12-08T07:48:35.264Z,63.23
2022-12-08T07:51:04.409Z,62.69
2022-12-08T07:53:31.964Z,62.65
2022-12-08T07:55:59.797Z,63.14
2022-12-08T07:58:27.749Z,62.91
2022-12-08T08:00:54.718Z,62.46
2022-12-08T08:03:22.489Z,62.17
2022-12-08T08:05:50.296Z,61.50
2022-12-08T08:08:18.234Z,62.45
2022-12-08T08:10:46.305Z,62.79
2022-12-08T08:13:14.165Z,62.40
2022-12-08T08:15:40.976Z,63.33
2022-12-08T08:18:07.985Z,62.20
2022-12-08T08:20:34.764Z,62.13
2022-12-08T08:23:01.529Z,63.13
2022-12-08T08:25:28.333Z,62.96
2022-12-08T08:27:56.116Z,62.14
2022-12-08T08:30:24.146Z,61.70
2022-12-08T08:32:51.001Z,61.38
2022-12-08T08:35:18.330Z,60.60
2022-12-08T08:37:48.862Z,60.90
2022-12-08T08:40:17.729Z,61.45
2022-12-08T08:42:44.527Z,62.46
2022-12-08T08:45:12.449Z,61.19
2022-12-08T08:47:39.201Z,61.57
2022-12-08T08:50:07.248Z,61.50
2022-12-08T08:52:34.388Z,60.25
2022-12-08T08:55:01.097Z,59.15
2022-12-08T08:57:28.062Z,58.54
2022-12-08T08:59:55.953Z,57.88
2022-12-08T09:02:22.686Z,56.76
2022-12-08T09:04:49.733Z,55.12
2022-12-08T09:07:16.592Z,54.72
2022-12-08T09:09:43.811Z,54.24
2022-12-08T09:12:10.803Z,52.87
2022-12-08T09:14:37.630Z,52.84
2022-12-08T09:17:05.049Z,51.79
2022-12-08T09:19:32.751Z,51.28
2022-12-08T09:21:59.516Z,51.53
2022-12-08T09:24:27.225Z,51.07
2022-12-08T09:26:54.232Z,51.39
2022-12-08T09:29:39.649Z,51.93
2022-12-08T09:32:07.495Z,52.37
2022-12-08T09:34:34.276Z,51.41
2022-12-08T09:37:01.274Z,50.76
2022-12-08T09:39:28.275Z,50.81
2022-12-08T09:42:00.165Z,51.52
2022-12-08T09:44:47.900Z,51.64
2022-12-08T09:47:37.389Z,52.30
2022-12-08T09:50:12.519Z,53.58
2022-12-08T09:52:49.895Z,52.51
2022-12-08T09:55:25.584Z,51.85
2022-12-08T09:58:03.062Z,51.23
2022-12-08T10:00:30.090Z,51.11
2022-12-08T10:02:57.719Z,51.06
2022-12-08T10:05:28.257Z,51.12
2022-12-08T10:08:26.381Z,51.84
2022-12-08T10:11:02.424Z,51.27
2022-12-08T10:14:08.661Z,50.87
2022-12-08T10:16:46.270Z,50.46
2022-12-08T10:19:21.353Z,50.33
2022-12-08T10:21:49.114Z,49.58
2022-12-08T10:24:31.570Z,49.81
2022-12-08T10:26:59.146Z,49.27
2022-12-08T10:29:25.947Z,48.88
2022-12-08T10:31:52.970Z,48.21
2022-12-08T10:34:24.199Z,48.93
2022-12-08T10:36:57.076Z,48.59
2022-12-08T10:39:40.640Z,49.11
2022-12-08T10:42:14.997Z,48.85
2022-12-08T10:45:09.327Z,48.69
2022-12-08T10:47:44.766Z,47.89
2022-12-08T10:50:23.523Z,47.78
2022-12-08T10:53:08.302Z,47.98
2022-12-08T10:56:01.314Z,49.26
2022-12-08T10:58:41.603Z,49.15
2022-12-08T11:01:21.649Z,50.01
2022-12-08T11:03:55.762Z,48.78
2022-12-08T11:06:22.842Z,49.05
2022-12-08T11:08:53.988Z,49.94
2022-12-08T11:11:27.687Z,49.35
2022-12-08T11:13:56.605Z,49.73
2022-12-08T11:16:23.738Z,49.26
2022-12-08T11:19:06.974Z,49.19
2022-12-08T11:21:37.264Z,49.71
2022-12-08T11:24:23.578Z,49.33
2022-12-08T11:27:02.548Z,49.71
2022-12-08T11:29:32.756Z,49.80
2022-12-08T11:32:02.080Z,49.84
2022-12-08T11:35:05.927Z,49.90
2022-12-08T11:37:43.464Z,49.56
2022-12-08T11:40:23.461Z,49.58
2022-12-08T11:43:17.915Z,49.65
2022-12-08T11:45:46.489Z,49.48
2022-12-08T11:48:16.169Z,49.06
2022-12-08T11:50:52.009Z,47.63
2022-12-08T11:53:43.503Z,46.01
2022-12-08T11:56:20.403Z,46.37
2022-12-08T11:58:55.930Z,46.11
2022-12-08T12:01:25.500Z,45.74
2022-12-08T12:04:29.035Z,44.63
2022-12-08T12:07:01.720Z,43.54
2022-12-08T12:09:47.435Z,42.40
2022-12-08T12:12:39.294Z,42.67
2022-12-08T12:15:56.698Z,43.91
2022-12-08T12:18:32.374Z,44.52
2022-12-08T12:21:07.395Z,45.21
2022-12-08T12:23:44.997Z,46.35
2022-12-08T12:26:21.392Z,44.79
2022-12-08T12:28:52.664Z,42.07
2022-12-08T12:31:25.244Z,41.64
2022-12-08T12:33:57.154Z,40.03
2022-12-08T12:36:25.544Z,39.59
2022-12-08T12:39:01.408Z,37.56
2022-12-08T12:41:51.218Z,37.86
2022-12-08T12:44:18.062Z,39.29
2022-12-08T12:46:50.508Z,39.82
2022-12-08T12:49:38.933Z,39.58
2022-12-08T12:52:15.248Z,42.04
2022-12-08T12:55:04.706Z,42.08
2022-12-08T12:57:40.424Z,43.19
2022-12-08T13:00:17.425Z,43.70
2022-12-08T13:02:44.477Z,44.90
2022-12-08T13:05:20.343Z,45.29
2022-12-08T13:08:02.399Z,46.10
2022-12-08T13:10:42.144Z,45.48
2022-12-08T13:13:16.377Z,44.78
2022-12-08T13:15:56.229Z,45.04
2022-12-08T13:18:36.773Z,45.11
2022-12-08T13:21:08.437Z,44.47
2022-12-08T13:23:38.119Z,46.30
2022-12-08T13:26:27.228Z,46.29
2022-12-08T13:29:01.264Z,45.43
2022-12-08T13:31:51.113Z,44.89
2022-12-08T13:34:39.456Z,44.37
2022-12-08T13:37:06.422Z,45.92
2022-12-08T13:40:05.994Z,45.88
2022-12-08T13:43:02.033Z,46.08
2022-12-08T13:46:18.276Z,46.07
2022-12-08T13:49:09.958Z,45.23
2022-12-08T13:57:27.426Z,47.08
2022-12-08T13:59:54.417Z,46.41
2022-12-08T14:02:34.426Z,46.35
2022-12-08T14:05:18.280Z,47.40
2022-12-08T14:07:48.515Z,48.98
2022-12-08T14:10:27.374Z,48.49
2022-12-08T14:13:00.909Z,48.20
2022-12-08T14:15:31.380Z,48.42
2022-12-08T14:18:03.476Z,48.73
2022-12-08T14:20:33.816Z,48.87
2022-12-08T14:23:09.756Z,49.34
2022-12-08T14:25:37.341Z,49.56
2022-12-08T14:28:04.995Z,48.67
2022-12-08T14:30:33.572Z,49.02
2022-12-08T14:33:02.638Z,48.61
2022-12-08T14:35:37.903Z,49.98
2022-12-08T14:38:19.525Z,48.70
2022-12-08T14:40:48.279Z,48.97
2022-12-08T14:43:20.504Z,50.26
2022-12-08T14:45:50.841Z,50.71
2022-12-08T14:48:38.883Z,50.08
2022-12-08T14:51:21.006Z,49.92
2022-12-08T14:53:52.198Z,50.37
2022-12-08T14:56:28.819Z,50.64
2022-12-08T14:59:37.899Z,50.50
2022-12-08T15:02:19.419Z,50.43
2022-12-08T15:04:48.802Z,51.00
2022-12-08T15:07:23.020Z,50.83
2022-12-08T15:10:25.554Z,49.97
2022-12-08T15:13:01.400Z,51.06
2022-12-08T15:15:29.566Z,51.30
2022-12-08T15:18:12.821Z,51.88
2022-12-08T15:20:44.007Z,50.36
2022-12-08T15:23:44.783Z,50.78
2022-12-08T15:26:24.093Z,50.96
2022-12-08T15:28:53.074Z,51.00
2022-12-08T15:31:20.331Z,51.16
2022-12-08T15:33:47.628Z,52.29
2022-12-08T15:36:14.451Z,52.76
2022-12-08T15:38:42.930Z,52.51
2022-12-08T15:41:14.581Z,52.80
2022-12-08T15:43:42.386Z,53.42
2022-12-08T15:46:09.223Z,52.98
2022-12-08T15:48:37.872Z,52.70
2022-12-08T15:51:04.865Z,52.71
2022-12-08T15:53:31.597Z,52.50
2022-12-08T15:58:56.122Z,52.92
2022-12-08T16:01:24.259Z,53.26
2022-12-08T16:09:32.675Z,52.84
2022-12-08T16:12:18.207Z,51.90
2022-12-08T16:17:33.162Z,51.65
2022-12-08T16:20:01.217Z,51.42
2022-12-08T16:25:19.254Z,51.83
2022-12-08T16:30:36.691Z,52.36
2022-12-08T16:33:05.149Z,52.01
2022-12-08T16:35:32.432Z,52.11
2022-12-08T16:37:59.296Z,52.62
2022-12-08T16:40:26.255Z,52.85
2022-12-08T16:42:53.212Z,52.25
2022-12-08T16:45:28.644Z,52.95
2022-12-08T16:47:58.393Z,53.09
2022-12-08T16:50:28.093Z,52.22
2022-12-08T16:53:04.040Z,53.12
2022-12-08T16:55:32.354Z,53.88
2022-12-08T16:57:59.761Z,54.87
2022-12-08T17:00:29.032Z,53.48
2022-12-08T17:02:56.838Z,53.09
2022-12-08T17:05:25.539Z,52.86
2022-12-08T17:07:53.861Z,52.23
2022-12-08T17:10:23.991Z,53.01
2022-12-08T17:12:51.268Z,52.27
2022-12-08T17:15:21.354Z,53.19
2022-12-08T17:17:48.852Z,52.75
2022-12-08T17:20:21.852Z,52.88
2022-12-08T17:22:49.434Z,53.17
2022-12-08T17:25:16.547Z,53.28
2022-12-08T17:27:43.475Z,53.58
2022-12-08T17:30:15.093Z,52.82
2022-12-08T17:32:42.933Z,52.70
2022-12-08T17:35:10.047Z,53.48
2022-12-08T17:37:36.894Z,53.50
2022-12-08T17:40:04.933Z,54.35
2022-12-08T17:42:31.910Z,54.58
2022-12-08T17:44:58.859Z,54.21
2022-12-08T17:47:25.627Z,53.23
2022-12-08T17:49:52.598Z,53.06
2022-12-08T17:52:19.519Z,55.06
2022-12-08T17:54:46.239Z,54.18
2022-12-08T17:57:13.203Z,53.88
2022-12-08T17:59:40.442Z,54.43
2022-12-08T18:02:10.991Z,54.18
2022-12-08T18:04:37.896Z,53.66
2022-12-08T18:07:04.780Z,53.97
2022-12-08T18:09:31.545Z,53.94
2022-12-08T18:11:58.484Z,53.81
2022-12-08T18:14:25.338Z,52.86
2022-12-08T18:16:56.194Z,52.39
2022-12-08T18:19:26.621Z,54.41
2022-12-08T18:21:53.567Z,54.49
2022-12-08T18:24:23.284Z,55.01
2022-12-08T18:26:52.364Z,54.97
2022-12-08T18:29:21.157Z,54.40
2022-12-08T18:31:48.539Z,53.52
2022-12-08T18:34:15.831Z,53.67
2022-12-08T18:36:42.723Z,51.91
2022-12-08T18:39:24.659Z,52.20
2022-12-08T18:41:53.424Z,53.09
2022-12-08T18:44:20.683Z,52.47
2022-12-08T18:46:47.598Z,52.32
2022-12-08T18:49:16.624Z,52.75
2022-12-08T18:51:43.771Z,52.23
2022-12-08T18:54:12.676Z,52.35
2022-12-08T18:56:39.642Z,52.26
2022-12-08T18:59:09.298Z,51.73
2022-12-08T19:01:38.784Z,52.11
2022-12-08T19:06:54.839Z,51.58
2022-12-08T19:09:22.403Z,52.44
2022-12-08T19:11:49.277Z,52.83
2022-12-08T19:14:16.338Z,52.87
2022-12-08T19:16:44.086Z,52.16
2022-12-08T19:19:11.009Z,51.95
2022-12-08T19:21:44.609Z,53.05
2022-12-08T19:24:13.207Z,53.39
2022-12-08T19:26:40.570Z,54.11
2022-12-08T19:29:07.488Z,53.93
2022-12-08T19:31:34.455Z,56.35
2022-12-08T19:34:01.438Z,56.52
2022-12-08T19:36:35.308Z,55.99
2022-12-08T19:39:33.301Z,54.79
2022-12-08T19:42:18.899Z,55.83
2022-12-08T19:44:55.149Z,56.22
2022-12-08T19:47:27.121Z,56.82
2022-12-08T19:50:15.710Z,56.00
2022-12-08T19:52:43.584Z,55.71
2022-12-08T19:55:11.720Z,55.35
2022-12-08T19:57:39.551Z,57.59
2022-12-08T20:00:08.519Z,57.14
2022-12-08T20:02:36.683Z,57.01
2022-12-08T20:05:05.751Z,56.43
2022-12-08T20:07:32.557Z,56.77
2022-12-08T20:09:59.582Z,56.76
2022-12-08T20:12:26.460Z,56.71
2022-12-08T20:14:54.310Z,56.88
2022-12-08T20:17:21.010Z,57.01
2022-12-08T20:19:47.860Z,56.42
2022-12-08T20:22:14.776Z,57.11
2022-12-08T20:24:41.437Z,57.39
2022-12-08T20:27:08.430Z,57.27
2022-12-08T20:29:35.162Z,57.11
2022-12-08T20:32:02.207Z,56.92
2022-12-08T20:34:30.602Z,57.17
2022-12-08T20:36:57.473Z,57.38
2022-12-08T20:39:24.107Z,57.54
2022-12-08T20:41:52.266Z,56.66
2022-12-08T20:44:19.124Z,57.92
2022-12-08T20:46:49.418Z,57.79
2022-12-08T20:49:17.052Z,57.86
2022-12-08T20:51:44.533Z,57.53
2022-12-08T20:54:11.889Z,57.57
2022-12-08T20:56:42.112Z,57.76
2022-12-08T20:59:16.824Z,58.55
2022-12-08T21:01:43.907Z,57.91
2022-12-08T21:04:12.836Z,58.02
2022-12-08T21:06:39.695Z,57.03
2022-12-08T21:09:06.846Z,57.20
2022-12-08T21:11:33.898Z,57.64
2022-12-08T21:14:00.673Z,57.50
2022-12-08T21:16:28.349Z,58.25
2022-12-08T21:18:55.337Z,57.35
2022-12-08T21:21:22.354Z,56.88
2022-12-08T21:23:49.277Z,57.48
2022-12-08T21:26:19.977Z,57.16
2022-12-08T21:28:46.963Z,57.37
2022-12-08T21:31:17.052Z,56.78
2022-12-08T21:33:44.783Z,57.23
2022-12-08T21:36:14.707Z,57.63
2022-12-08T21:38:42.617Z,56.97
2022-12-08T21:41:11.969Z,57.97
2022-12-08T21:43:39.725Z,57.58
2022-12-08T21:46:06.723Z,57.51
2022-12-08T21:48:33.644Z,57.72
2022-12-08T21:51:05.387Z,56.81
2022-12-08T21:53:32.713Z,57.17
2022-12-08T21:55:59.510Z,57.97
2022-12-08T21:58:26.528Z,58.46
2022-12-08T22:00:53.614Z,58.58
2022-12-08T22:03:20.882Z,57.44
2022-12-08T22:05:47.786Z,57.50
2022-12-08T22:08:15.973Z,57.88
2022-12-08T22:10:47.943Z,57.69
2022-12-08T22:13:14.933Z,57.05
2022-12-08T22:15:42.959Z,56.96
2022-12-08T22:18:11.501Z,57.29
2022-12-08T22:20:43.884Z,57.32
2022-12-08T22:23:11.156Z,57.27
2022-12-08T22:25:38.080Z,57.01
2022-12-08T22:28:06.029Z,56.92
2022-12-08T22:30:38.679Z,56.99
2022-12-08T22:33:06.069Z,60.48
2022-12-08T22:35:32.751Z,58.91
2022-12-08T22:37:59.849Z,59.08
2022-12-08T22:40:26.648Z,58.27
2022-12-08T22:42:53.401Z,59.51
2022-12-08T22:45:20.235Z,58.47
2022-12-08T22:47:47.021Z,57.97
2022-12-08T22:50:14.086Z,57.81
2022-12-08T22:52:40.957Z,57.87
2022-12-08T22:55:08.641Z,57.45
2022-12-08T22:57:35.428Z,56.99
2022-12-08T23:00:03.532Z,57.24
2022-12-08T23:02:30.569Z,56.20
2022-12-08T23:04:57.701Z,56.11
2022-12-08T23:07:25.162Z,55.96
2022-12-08T23:09:52.124Z,58.39
2022-12-08T23:12:19.139Z,56.88
2022-12-08T23:14:46.076Z,56.99
2022-12-08T23:17:13.213Z,57.44
2022-12-08T23:19:40.258Z,57.30
2022-12-08T23:22:07.145Z,56.82
2022-12-08T23:24:33.993Z,56.74
2022-12-08T23:27:01.130Z,56.64
2022-12-08T23:29:28.345Z,55.75
2022-12-08T23:31:55.090Z,55.85
2022-12-08T23:34:22.252Z,56.41
2022-12-08T23:36:49.405Z,57.34
2022-12-08T23:39:16.393Z,57.37
2022-12-08T23:41:43.356Z,57.98
2022-12-08T23:44:12.111Z,57.83
2022-12-08T23:46:39.272Z,57.62
2022-12-08T23:49:06.766Z,58.07
2022-12-08T23:51:33.712Z,58.02
2022-12-08T23:54:00.792Z,58.56
2022-12-08T23:56:30.516Z,59.89
2022-12-08T23:58:57.643Z,59.54
